sensor_id;sensor_type;location;lat;lon;timestamp;pressure;altitude;pressure_sealevel;temperature;humidity
27840;BME280;15207;42.182;24.308;2023-01-25T00:00:25;100637.28;;;1.69;100.00
27840;BME280;15207;42.182;24.308;2023-01-25T00:02:51;100645.94;;;1.78;100.00
27840;BME280;15207;42.182;24.308;2023-01-25T00:05:16;100639.03;;;1.70;100.00
27840;BME280;15207;42.182;24.308;2023-01-25T00:07:42;100645.19;;;1.71;100.00
27840;BME280;15207;42.182;24.308;2023-01-25T00:10:08;100642.72;;;1.62;98.93
27840;BME280;15207;42.182;24.308;2023-01-25T00:12:33;100647.88;;;1.68;99.60
27840;BME280;15207;42.182;24.308;2023-01-25T00:14:59;100643.28;;;1.79;99.42
27840;BME280;15207;42.182;24.308;2023-01-25T00:17:25;100644.31;;;1.70;99.49
27840;BME280;15207;42.182;24.308;2023-01-25T00:19:51;100641.81;;;1.64;98.96
27840;BME280;15207;42.182;24.308;2023-01-25T00:22:16;100639.84;;;1.74;98.77
27840;BME280;15207;42.182;24.308;2023-01-25T00:24:41;100645.88;;;1.81;98.69
27840;BME280;15207;42.182;24.308;2023-01-25T00:27:07;100647.69;;;1.77;98.06
27840;BME280;15207;42.182;24.308;2023-01-25T00:29:32;100650.78;;;1.57;97.82
27840;BME280;15207;42.182;24.308;2023-01-25T00:34:37;100654.25;;;1.57;98.77
27840;BME280;15207;42.182;24.308;2023-01-25T00:39:37;100651.44;;;1.67;99.58
27840;BME280;15207;42.182;24.308;2023-01-25T00:42:04;100656.22;;;1.48;99.64
27840;BME280;15207;42.182;24.308;2023-01-25T00:44:29;100651.00;;;1.44;100.00
27840;BME280;15207;42.182;24.308;2023-01-25T00:46:55;100654.38;;;1.51;100.00
27840;BME280;15207;42.182;24.308;2023-01-25T00:49:24;100660.75;;;1.41;100.00
27840;BME280;15207;42.182;24.308;2023-01-25T00:51:51;100649.03;;;1.56;100.00
27840;BME280;15207;42.182;24.308;2023-01-25T00:54:17;100653.47;;;1.52;100.00
27840;BME280;15207;42.182;24.308;2023-01-25T00:56:43;100648.31;;;1.46;100.00
27840;BME280;15207;42.182;24.308;2023-01-25T00:59:10;100637.91;;;1.38;100.00
27840;BME280;15207;42.182;24.308;2023-01-25T01:01:36;100636.22;;;1.36;100.00
27840;BME280;15207;42.182;24.308;2023-01-25T01:04:01;100633.44;;;1.42;100.00
27840;BME280;15207;42.182;24.308;2023-01-25T01:06:27;100638.75;;;1.40;100.00
27840;BME280;15207;42.182;24.308;2023-01-25T01:08:53;100639.50;;;1.47;100.00
27840;BME280;15207;42.182;24.308;2023-01-25T01:11:18;100626.63;;;1.30;100.00
27840;BME280;15207;42.182;24.308;2023-01-25T01:13:44;100638.19;;;1.24;100.00
27840;BME280;15207;42.182;24.308;2023-01-25T01:16:11;100633.13;;;1.12;100.00
27840;BME280;15207;42.182;24.308;2023-01-25T01:18:43;100633.94;;;1.15;100.00
27840;BME280;15207;42.182;24.308;2023-01-25T01:21:10;100630.28;;;1.24;100.00
27840;BME280;15207;42.182;24.308;2023-01-25T01:23:36;100623.34;;;1.18;100.00
27840;BME280;15207;42.182;24.308;2023-01-25T01:26:08;100622.06;;;1.38;100.00
27840;BME280;15207;42.182;24.308;2023-01-25T01:28:34;100629.81;;;1.48;100.00
27840;BME280;15207;42.182;24.308;2023-01-25T01:31:08;100634.91;;;1.58;100.00
27840;BME280;15207;42.182;24.308;2023-01-25T01:33:34;100631.00;;;1.77;100.00
27840;BME280;15207;42.182;24.308;2023-01-25T01:36:10;100631.19;;;1.67;100.00
27840;BME280;15207;42.182;24.308;2023-01-25T01:38:36;100627.22;;;1.44;100.00
27840;BME280;15207;42.182;24.308;2023-01-25T01:41:02;100623.84;;;1.38;100.00
27840;BME280;15207;42.182;24.308;2023-01-25T01:43:28;100624.69;;;1.40;100.00
27840;BME280;15207;42.182;24.308;2023-01-25T01:45:58;100627.34;;;1.38;100.00
27840;BME280;15207;42.182;24.308;2023-01-25T01:51:20;100632.78;;;1.30;100.00
27840;BME280;15207;42.182;24.308;2023-01-25T01:53:47;100624.09;;;1.25;100.00
27840;BME280;15207;42.182;24.308;2023-01-25T01:56:19;100633.63;;;1.32;100.00
27840;BME280;15207;42.182;24.308;2023-01-25T01:58:48;100629.34;;;1.27;100.00
27840;BME280;15207;42.182;24.308;2023-01-25T02:01:15;100629.69;;;1.08;100.00
27840;BME280;15207;42.182;24.308;2023-01-25T02:03:42;100629.59;;;1.13;100.00
27840;BME280;15207;42.182;24.308;2023-01-25T02:06:24;100634.00;;;1.12;100.00
27840;BME280;15207;42.182;24.308;2023-01-25T02:08:52;100631.09;;;1.26;100.00
27840;BME280;15207;42.182;24.308;2023-01-25T02:11:19;100619.47;;;1.37;100.00
27840;BME280;15207;42.182;24.308;2023-01-25T02:13:46;100625.59;;;1.39;100.00
27840;BME280;15207;42.182;24.308;2023-01-25T02:16:16;100627.34;;;1.40;100.00
27840;BME280;15207;42.182;24.308;2023-01-25T02:18:44;100627.47;;;1.34;100.00
27840;BME280;15207;42.182;24.308;2023-01-25T02:21:09;100624.53;;;1.48;100.00
27840;BME280;15207;42.182;24.308;2023-01-25T02:23:52;100629.78;;;1.49;100.00
27840;BME280;15207;42.182;24.308;2023-01-25T02:26:19;100617.19;;;1.62;100.00
27840;BME280;15207;42.182;24.308;2023-01-25T02:28:49;100619.88;;;1.61;100.00
27840;BME280;15207;42.182;24.308;2023-01-25T02:31:17;100625.03;;;1.65;100.00
27840;BME280;15207;42.182;24.308;2023-01-25T02:33:43;100625.94;;;1.66;100.00
27840;BME280;15207;42.182;24.308;2023-01-25T02:38:40;100626.34;;;1.88;100.00
27840;BME280;15207;42.182;24.308;2023-01-25T02:41:15;100624.81;;;1.78;100.00
27840;BME280;15207;42.182;24.308;2023-01-25T02:43:42;100635.38;;;1.78;100.00
27840;BME280;15207;42.182;24.308;2023-01-25T02:46:15;100630.41;;;1.62;100.00
27840;BME280;15207;42.182;24.308;2023-01-25T02:48:42;100630.31;;;1.67;100.00
27840;BME280;15207;42.182;24.308;2023-01-25T02:51:09;100628.59;;;1.64;100.00
27840;BME280;15207;42.182;24.308;2023-01-25T02:53:35;100633.44;;;1.42;100.00
27840;BME280;15207;42.182;24.308;2023-01-25T02:56:01;100627.34;;;1.38;100.00
27840;BME280;15207;42.182;24.308;2023-01-25T02:58:27;100635.63;;;1.19;100.00
27840;BME280;15207;42.182;24.308;2023-01-25T03:00:53;100633.41;;;1.43;100.00
27840;BME280;15207;42.182;24.308;2023-01-25T03:03:19;100623.50;;;1.09;100.00
27840;BME280;15207;42.182;24.308;2023-01-25T03:05:45;100625.34;;;1.05;100.00
27840;BME280;15207;42.182;24.308;2023-01-25T03:08:10;100629.66;;;1.10;100.00
27840;BME280;15207;42.182;24.308;2023-01-25T03:10:36;100631.88;;;1.31;100.00
27840;BME280;15207;42.182;24.308;2023-01-25T03:13:01;100627.50;;;1.32;100.00
27840;BME280;15207;42.182;24.308;2023-01-25T03:15:27;100633.38;;;1.47;100.00
27840;BME280;15207;42.182;24.308;2023-01-25T03:17:54;100625.53;;;1.40;100.00
27840;BME280;15207;42.182;24.308;2023-01-25T03:20:21;100629.81;;;1.48;100.00
27840;BME280;15207;42.182;24.308;2023-01-25T03:22:46;100629.78;;;1.49;100.00
27840;BME280;15207;42.182;24.308;2023-01-25T03:25:12;100631.53;;;1.50;100.00
27840;BME280;15207;42.182;24.308;2023-01-25T03:27:37;100630.63;;;1.51;100.00
27840;BME280;15207;42.182;24.308;2023-01-25T03:30:03;100630.78;;;1.43;100.00
27840;BME280;15207;42.182;24.308;2023-01-25T03:32:29;100627.81;;;1.59;100.00
27840;BME280;15207;42.182;24.308;2023-01-25T03:34:54;100624.59;;;1.44;100.00
27840;BME280;15207;42.182;24.308;2023-01-25T03:37:20;100634.16;;;1.52;100.00
27840;BME280;15207;42.182;24.308;2023-01-25T03:39:45;100626.13;;;1.56;100.00
27840;BME280;15207;42.182;24.308;2023-01-25T03:42:11;100624.66;;;1.41;100.00
27840;BME280;15207;42.182;24.308;2023-01-25T03:44:37;100634.03;;;1.56;100.00
27840;BME280;15207;42.182;24.308;2023-01-25T03:47:03;100628.84;;;1.53;100.00
27840;BME280;15207;42.182;24.308;2023-01-25T03:49:28;100626.13;;;1.55;100.00
27840;BME280;15207;42.182;24.308;2023-01-25T03:51:54;100619.03;;;1.58;100.00
27840;BME280;15207;42.182;24.308;2023-01-25T03:54:19;100627.16;;;1.49;100.00
27840;BME280;15207;42.182;24.308;2023-01-25T03:56:44;100625.47;;;1.45;100.00
27840;BME280;15207;42.182;24.308;2023-01-25T03:59:11;100634.03;;;1.56;100.00
27840;BME280;15207;42.182;24.308;2023-01-25T04:01:37;100634.81;;;1.62;100.00
27840;BME280;15207;42.182;24.308;2023-01-25T04:04:03;100635.44;;;1.73;100.00
27840;BME280;15207;42.182;24.308;2023-01-25T04:06:28;100640.00;;;1.66;100.00
27840;BME280;15207;42.182;24.308;2023-01-25T04:08:54;100630.81;;;1.40;100.00
27840;BME280;15207;42.182;24.308;2023-01-25T04:11:19;100628.94;;;1.47;100.00
27840;BME280;15207;42.182;24.308;2023-01-25T04:13:45;100627.66;;;1.67;100.00
27840;BME280;15207;42.182;24.308;2023-01-25T04:16:10;100626.91;;;1.60;100.00
27840;BME280;15207;42.182;24.308;2023-01-25T04:18:37;100633.91;;;1.63;100.00
27840;BME280;15207;42.182;24.308;2023-01-25T04:21:03;100635.44;;;1.73;100.00
27840;BME280;15207;42.182;24.308;2023-01-25T04:23:29;100637.25;;;1.73;100.00
27840;BME280;15207;42.182;24.308;2023-01-25T04:25:59;100637.09;;;1.79;100.00
27840;BME280;15207;42.182;24.308;2023-01-25T04:28:26;100625.22;;;1.57;100.00
27840;BME280;15207;42.182;24.308;2023-01-25T04:30:55;100635.72;;;1.61;100.00
27840;BME280;15207;42.182;24.308;2023-01-25T04:33:21;100634.97;;;1.54;100.00
27840;BME280;15207;42.182;24.308;2023-01-25T04:35:46;100626.22;;;1.52;100.00
27840;BME280;15207;42.182;24.308;2023-01-25T04:38:12;100639.91;;;1.71;100.00
27840;BME280;15207;42.182;24.308;2023-01-25T04:40:38;100633.97;;;1.61;100.00
27840;BME280;15207;42.182;24.308;2023-01-25T04:43:04;100640.53;;;1.82;100.00
27840;BME280;15207;42.182;24.308;2023-01-25T04:45:31;100639.41;;;1.94;100.00
27840;BME280;15207;42.182;24.308;2023-01-25T04:47:59;100632.22;;;2.01;100.00
27840;BME280;15207;42.182;24.308;2023-01-25T04:50:25;100635.47;;;2.13;100.00
27840;BME280;15207;42.182;24.308;2023-01-25T04:52:51;100641.72;;;2.10;100.00
27840;BME280;15207;42.182;24.308;2023-01-25T04:55:19;100645.06;;;2.18;100.00
27840;BME280;15207;42.182;24.308;2023-01-25T04:57:49;100644.28;;;2.13;100.00
27840;BME280;15207;42.182;24.308;2023-01-25T05:00:16;100652.06;;;2.21;100.00
27840;BME280;15207;42.182;24.308;2023-01-25T05:02:42;100642.56;;;2.12;100.00
27840;BME280;15207;42.182;24.308;2023-01-25T05:05:08;100646.25;;;2.03;100.00
27840;BME280;15207;42.182;24.308;2023-01-25T05:07:34;100648.59;;;2.19;100.00
27840;BME280;15207;42.182;24.308;2023-01-25T05:09:59;100648.88;;;2.05;100.00
27840;BME280;15207;42.182;24.308;2023-01-25T05:12:25;100655.88;;;2.07;100.00
27840;BME280;15207;42.182;24.308;2023-01-25T05:14:50;100646.88;;;2.16;100.00
27840;BME280;15207;42.182;24.308;2023-01-25T05:17:16;100648.75;;;2.11;100.00
27840;BME280;15207;42.182;24.308;2023-01-25T05:19:41;100645.22;;;2.10;100.00
27840;BME280;15207;42.182;24.308;2023-01-25T05:22:10;100648.91;;;2.03;100.00
27840;BME280;15207;42.182;24.308;2023-01-25T05:24:36;100651.47;;;2.08;100.00
27840;BME280;15207;42.182;24.308;2023-01-25T05:27:06;100655.00;;;2.07;100.00
27840;BME280;15207;42.182;24.308;2023-01-25T05:32:06;100656.81;;;2.05;100.00
27840;BME280;15207;42.182;24.308;2023-01-25T05:34:32;100663.19;;;1.94;100.00
27840;BME280;15207;42.182;24.308;2023-01-25T05:36:58;100655.28;;;1.93;100.00
27840;BME280;15207;42.182;24.308;2023-01-25T05:39:24;100664.00;;;1.98;100.00
27840;BME280;15207;42.182;24.308;2023-01-25T05:41:50;100652.63;;;1.94;100.00
27840;BME280;15207;42.182;24.308;2023-01-25T05:44:15;100661.59;;;1.87;100.00
27840;BME280;15207;42.182;24.308;2023-01-25T05:46:41;100659.81;;;1.88;100.00
27840;BME280;15207;42.182;24.308;2023-01-25T05:49:06;100658.84;;;1.92;100.00
27840;BME280;15207;42.182;24.308;2023-01-25T05:51:32;100664.31;;;1.82;100.00
27840;BME280;15207;42.182;24.308;2023-01-25T05:53:58;100662.44;;;1.88;100.00
27840;BME280;15207;42.182;24.308;2023-01-25T05:56:23;100659.22;;;1.73;100.00
27840;BME280;15207;42.182;24.308;2023-01-25T05:58:53;100656.59;;;1.73;100.00
27840;BME280;15207;42.182;24.308;2023-01-25T06:01:19;100660.66;;;1.90;100.00
27840;BME280;15207;42.182;24.308;2023-01-25T06:03:45;100657.13;;;1.89;100.00
27840;BME280;15207;42.182;24.308;2023-01-25T06:06:10;100657.84;;;1.97;100.00
27840;BME280;15207;42.182;24.308;2023-01-25T06:08:36;100652.56;;;1.97;100.00
27840;BME280;15207;42.182;24.308;2023-01-25T06:11:09;100651.84;;;1.89;100.00
27840;BME280;15207;42.182;24.308;2023-01-25T06:13:35;100659.97;;;1.80;100.00
27840;BME280;15207;42.182;24.308;2023-01-25T06:16:00;100657.31;;;1.81;100.00
27840;BME280;15207;42.182;24.308;2023-01-25T06:18:28;100653.72;;;1.84;100.00
27840;BME280;15207;42.182;24.308;2023-01-25T06:20:55;100656.53;;;1.76;100.00
27840;BME280;15207;42.182;24.308;2023-01-25T06:23:21;100660.03;;;1.78;100.00
27840;BME280;15207;42.182;24.308;2023-01-25T06:25:47;100655.72;;;1.74;100.00
27840;BME280;15207;42.182;24.308;2023-01-25T06:28:13;100660.16;;;1.70;100.00
27840;BME280;15207;42.182;24.308;2023-01-25T06:30:38;100656.84;;;1.61;100.00
27840;BME280;15207;42.182;24.308;2023-01-25T06:33:03;100665.50;;;1.69;100.00
27840;BME280;15207;42.182;24.308;2023-01-25T06:35:31;100656.66;;;1.70;100.00
27840;BME280;15207;42.182;24.308;2023-01-25T06:37:58;100655.72;;;1.73;100.00
27840;BME280;15207;42.182;24.308;2023-01-25T06:40:24;100651.19;;;1.79;100.00
27840;BME280;15207;42.182;24.308;2023-01-25T06:42:50;100653.47;;;1.96;100.00
27840;BME280;15207;42.182;24.308;2023-01-25T06:45:16;100655.59;;;1.79;100.00
27840;BME280;15207;42.182;24.308;2023-01-25T06:47:41;100657.25;;;1.84;100.00
27840;BME280;15207;42.182;24.308;2023-01-25T06:50:08;100655.19;;;1.99;100.00
27840;BME280;15207;42.182;24.308;2023-01-25T06:52:34;100662.19;;;2.02;100.00
27840;BME280;15207;42.182;24.308;2023-01-25T06:55:05;100663.88;;;2.04;100.00
27840;BME280;15207;42.182;24.308;2023-01-25T06:57:32;100660.69;;;1.88;100.00
27840;BME280;15207;42.182;24.308;2023-01-25T06:59:59;100662.38;;;1.92;100.00
27840;BME280;15207;42.182;24.308;2023-01-25T07:02:25;100663.00;;;2.04;100.00
27840;BME280;15207;42.182;24.308;2023-01-25T07:04:50;100657.38;;;2.19;100.00
27840;BME280;15207;42.182;24.308;2023-01-25T07:07:16;100662.69;;;2.18;100.00
27840;BME280;15207;42.182;24.308;2023-01-25T07:09:41;100665.25;;;2.22;100.00
27840;BME280;15207;42.182;24.308;2023-01-25T07:12:07;100664.34;;;2.22;100.00
27840;BME280;15207;42.182;24.308;2023-01-25T07:14:32;100659.56;;;2.00;98.90
27840;BME280;15207;42.182;24.308;2023-01-25T07:16:58;100668.28;;;2.04;99.29
27840;BME280;15207;42.182;24.308;2023-01-25T07:19:24;100674.13;;;2.18;98.46
27840;BME280;15207;42.182;24.308;2023-01-25T07:21:50;100672.03;;;1.93;96.88
27840;BME280;15207;42.182;24.308;2023-01-25T07:24:18;100662.41;;;1.89;95.19
27840;BME280;15207;42.182;24.308;2023-01-25T07:26:45;100663.69;;;1.71;92.23
27840;BME280;15207;42.182;24.308;2023-01-25T07:29:12;100671.56;;;1.74;92.15
27840;BME280;15207;42.182;24.308;2023-01-25T07:31:39;100669.78;;;1.73;93.46
27840;BME280;15207;42.182;24.308;2023-01-25T07:34:08;100664.88;;;1.56;90.98
27840;BME280;15207;42.182;24.308;2023-01-25T07:36:34;100670.63;;;1.31;91.48
27840;BME280;15207;42.182;24.308;2023-01-25T07:38:59;100673.47;;;1.20;92.51
27840;BME280;15207;42.182;24.308;2023-01-25T07:41:25;100683.69;;;1.39;92.79
27840;BME280;15207;42.182;24.308;2023-01-25T07:43:51;100671.50;;;1.31;92.06
27840;BME280;15207;42.182;24.308;2023-01-25T07:46:16;100666.19;;;1.33;91.44
27840;BME280;15207;42.182;24.308;2023-01-25T07:48:47;100670.50;;;1.37;92.51
27840;BME280;15207;42.182;24.308;2023-01-25T07:51:15;100673.84;;;1.47;93.02
27840;BME280;15207;42.182;24.308;2023-01-25T07:53:52;100679.19;;;1.44;91.85
27840;BME280;15207;42.182;24.308;2023-01-25T07:56:19;100681.91;;;1.38;91.22
27840;BME280;15207;42.182;24.308;2023-01-25T07:58:45;100681.13;;;1.32;91.17
27840;BME280;15207;42.182;24.308;2023-01-25T08:01:13;100680.94;;;1.43;90.73
27840;BME280;15207;42.182;24.308;2023-01-25T08:03:39;100675.53;;;1.50;91.02
27840;BME280;15207;42.182;24.308;2023-01-25T08:06:06;100679.78;;;1.58;90.37
27840;BME280;15207;42.182;24.308;2023-01-25T08:08:33;100679.66;;;1.65;90.51
27840;BME280;15207;42.182;24.308;2023-01-25T08:11:05;100679.63;;;1.66;90.58
27840;BME280;15207;42.182;24.308;2023-01-25T08:13:31;100679.88;;;1.52;89.54
27840;BME280;15207;42.182;24.308;2023-01-25T08:15:56;100691.38;;;1.50;90.98
27840;BME280;15207;42.182;24.308;2023-01-25T08:18:22;100697.44;;;1.56;90.76
27840;BME280;15207;42.182;24.308;2023-01-25T08:20:47;100691.38;;;1.50;91.19
27840;BME280;15207;42.182;24.308;2023-01-25T08:23:13;100672.53;;;1.70;90.28
27840;BME280;15207;42.182;24.308;2023-01-25T08:25:39;100680.59;;;1.62;90.09
27840;BME280;15207;42.182;24.308;2023-01-25T08:28:04;100682.19;;;1.69;90.89
27840;BME280;15207;42.182;24.308;2023-01-25T08:30:30;100688.66;;;1.98;91.26
27840;BME280;15207;42.182;24.308;2023-01-25T08:32:55;100686.75;;;2.05;90.55
27840;BME280;15207;42.182;24.308;2023-01-25T08:35:21;100675.25;;;2.08;90.35
27840;BME280;15207;42.182;24.308;2023-01-25T08:37:46;100677.97;;;2.03;90.64
27840;BME280;15207;42.182;24.308;2023-01-25T08:40:12;100681.88;;;1.85;89.43
27840;BME280;15207;42.182;24.308;2023-01-25T08:42:40;100677.34;;;1.92;90.35
27840;BME280;15207;42.182;24.308;2023-01-25T08:45:08;100681.09;;;1.81;91.04
27840;BME280;15207;42.182;24.308;2023-01-25T08:47:34;100668.75;;;1.82;90.91
27840;BME280;15207;42.182;24.308;2023-01-25T08:50:00;100693.81;;;1.62;91.20
27840;BME280;15207;42.182;24.308;2023-01-25T08:52:26;100682.63;;;1.49;92.16
27840;BME280;15207;42.182;24.308;2023-01-25T08:54:51;100678.09;;;1.56;93.29
27840;BME280;15207;42.182;24.308;2023-01-25T08:57:17;100680.19;;;1.37;93.60
27840;BME280;15207;42.182;24.308;2023-01-25T08:59:43;100678.91;;;1.58;94.06
27840;BME280;15207;42.182;24.308;2023-01-25T09:02:11;100671.97;;;1.52;94.32
27840;BME280;15207;42.182;24.308;2023-01-25T09:04:37;100673.47;;;1.66;94.73
27840;BME280;15207;42.182;24.308;2023-01-25T09:07:03;100676.56;;;1.44;93.60
27840;BME280;15207;42.182;24.308;2023-01-25T09:09:30;100675.44;;;1.56;94.78
27840;BME280;15207;42.182;24.308;2023-01-25T09:11:56;100672.44;;;1.73;95.12
27840;BME280;15207;42.182;24.308;2023-01-25T09:14:21;100666.13;;;1.82;94.06
27840;BME280;15207;42.182;24.308;2023-01-25T09:16:47;100662.69;;;1.77;91.54
27840;BME280;15207;42.182;24.308;2023-01-25T09:19:13;100657.31;;;1.80;91.88
27840;BME280;15207;42.182;24.308;2023-01-25T09:21:39;100662.94;;;1.64;91.67
27840;BME280;15207;42.182;24.308;2023-01-25T09:24:05;100666.13;;;1.82;92.39
27840;BME280;15207;42.182;24.308;2023-01-25T09:26:31;100659.47;;;1.62;90.95
27840;BME280;15207;42.182;24.308;2023-01-25T09:28:56;100656.72;;;1.67;92.33
27840;BME280;15207;42.182;24.308;2023-01-25T09:31:22;100642.03;;;1.96;91.73
27840;BME280;15207;42.182;24.308;2023-01-25T09:33:49;100632.41;;;1.92;91.07
27840;BME280;15207;42.182;24.308;2023-01-25T09:36:15;100637.56;;;1.98;90.74
27840;BME280;15207;42.182;24.308;2023-01-25T09:38:41;100628.00;;;1.94;90.97
27840;BME280;15207;42.182;24.308;2023-01-25T09:41:20;100628.66;;;2.02;92.15
27840;BME280;15207;42.182;24.308;2023-01-25T09:46:53;100612.91;;;1.99;91.47
27840;BME280;15207;42.182;24.308;2023-01-25T09:52:15;100615.03;;;2.21;88.48
27840;BME280;15207;42.182;24.308;2023-01-25T09:54:48;100607.44;;;2.07;89.34
27840;BME280;15207;42.182;24.308;2023-01-25T09:57:17;100604.47;;;2.21;91.75
27840;BME280;15207;42.182;24.308;2023-01-25T09:59:44;100610.63;;;2.21;90.11
27840;BME280;15207;42.182;24.308;2023-01-25T10:04:53;100607.16;;;2.18;90.61
27840;BME280;15207;42.182;24.308;2023-01-25T10:07:41;100596.00;;;2.05;90.25
27840;BME280;15207;42.182;24.308;2023-01-25T10:10:18;100595.06;;;2.07;90.01
27840;BME280;15207;42.182;24.308;2023-01-25T10:12:46;100588.66;;;2.18;89.59
27840;BME280;15207;42.182;24.308;2023-01-25T10:15:20;100583.94;;;2.31;87.55
27840;BME280;15207;42.182;24.308;2023-01-25T10:18:19;100577.72;;;2.33;88.18
27840;BME280;15207;42.182;24.308;2023-01-25T10:20:52;100570.81;;;2.28;87.99
27840;BME280;15207;42.182;24.308;2023-01-25T10:23:45;100569.72;;;2.36;87.93
27840;BME280;15207;42.182;24.308;2023-01-25T10:26:24;100570.53;;;2.02;87.64
27840;BME280;15207;42.182;24.308;2023-01-25T10:29:13;100557.19;;;2.08;89.19
27840;BME280;15207;42.182;24.308;2023-01-25T10:31:53;100553.41;;;2.19;88.63
27840;BME280;15207;42.182;24.308;2023-01-25T10:34:27;100550.88;;;2.13;88.77
27840;BME280;15207;42.182;24.308;2023-01-25T10:36:56;100539.88;;;2.31;87.79
27840;BME280;15207;42.182;24.308;2023-01-25T10:39:22;100546.16;;;2.25;87.71
27840;BME280;15207;42.182;24.308;2023-01-25T10:41:49;100536.59;;;2.21;87.01
27840;BME280;15207;42.182;24.308;2023-01-25T10:44:15;100540.03;;;2.25;86.84
27840;BME280;15207;42.182;24.308;2023-01-25T10:52:21;100539.78;;;1.98;86.56
27840;BME280;15207;42.182;24.308;2023-01-25T10:55:04;100533.03;;;1.86;87.21
27840;BME280;15207;42.182;24.308;2023-01-25T10:57:31;100529.38;;;1.90;87.17
27840;BME280;15207;42.182;24.308;2023-01-25T11:00:01;100523.03;;;1.99;87.92
27840;BME280;15207;42.182;24.308;2023-01-25T11:02:37;100516.91;;;1.97;88.20
27840;BME280;15207;42.182;24.308;2023-01-25T11:07:45;100506.25;;;2.00;89.06
27840;BME280;15207;42.182;24.308;2023-01-25T11:10:34;100511.25;;;2.13;87.91
27840;BME280;15207;42.182;24.308;2023-01-25T11:15:38;100505.56;;;2.28;87.51
27840;BME280;15207;42.182;24.308;2023-01-25T11:18:05;100497.75;;;2.23;86.84
27840;BME280;15207;42.182;24.308;2023-01-25T11:20:31;100497.72;;;2.25;87.71
27840;BME280;15207;42.182;24.308;2023-01-25T11:22:57;100498.00;;;2.14;86.39
27840;BME280;15207;42.182;24.308;2023-01-25T11:25:27;100488.00;;;2.25;87.72
27840;BME280;15207;42.182;24.308;2023-01-25T11:28:21;100479.34;;;2.54;88.01
27840;BME280;15207;42.182;24.308;2023-01-25T11:30:50;100479.88;;;2.67;88.65
27840;BME280;15207;42.182;24.308;2023-01-25T11:33:19;100478.81;;;2.74;87.03
27840;BME280;15207;42.182;24.308;2023-01-25T11:35:56;100479.09;;;2.63;85.43
27840;BME280;15207;42.182;24.308;2023-01-25T11:38:27;100468.84;;;2.50;85.85
27840;BME280;15207;42.182;24.308;2023-01-25T11:55:54;100454.09;;;2.42;85.59
27840;BME280;15207;42.182;24.308;2023-01-25T12:01:21;100453.25;;;2.41;85.81
27840;BME280;15207;42.182;24.308;2023-01-25T12:06:58;100434.16;;;2.28;86.45
27840;BME280;15207;42.182;24.308;2023-01-25T12:09:27;100434.91;;;2.33;84.63
27840;BME280;15207;42.182;24.308;2023-01-25T12:25:58;100420.28;;;2.21;85.78
27840;BME280;15207;42.182;24.308;2023-01-25T12:28:35;100419.75;;;2.40;85.90
27840;BME280;15207;42.182;24.308;2023-01-25T12:33:38;100421.41;;;2.44;84.70
27840;BME280;15207;42.182;24.308;2023-01-25T12:36:11;100413.31;;;2.50;84.91
27840;BME280;15207;42.182;24.308;2023-01-25T12:38:44;100411.31;;;2.59;84.83
27840;BME280;15207;42.182;24.308;2023-01-25T12:44:19;100415.00;;;2.53;83.14
27840;BME280;15207;42.182;24.308;2023-01-25T12:49:45;100406.63;;;2.37;83.01
27840;BME280;15207;42.182;24.308;2023-01-25T12:52:36;100405.81;;;2.33;83.06
27840;BME280;15207;42.182;24.308;2023-01-25T12:55:06;100405.16;;;2.27;83.37
27840;BME280;15207;42.182;24.308;2023-01-25T13:06:45;100401.63;;;2.26;83.91
27840;BME280;15207;42.182;24.308;2023-01-25T13:09:16;100401.59;;;2.28;83.29
27840;BME280;15207;42.182;24.308;2023-01-25T13:11:44;100403.28;;;2.30;84.47
27840;BME280;15207;42.182;24.308;2023-01-25T13:19:39;100393.41;;;2.37;83.81
27840;BME280;15207;42.182;24.308;2023-01-25T13:22:11;100384.56;;;2.38;84.09
27840;BME280;15207;42.182;24.308;2023-01-25T13:27:31;100384.13;;;2.54;84.10
27840;BME280;15207;42.182;24.308;2023-01-25T13:35:39;100390.72;;;2.70;82.75
27840;BME280;15207;42.182;24.308;2023-01-25T13:38:27;100387.09;;;2.73;81.94
27840;BME280;15207;42.182;24.308;2023-01-25T13:41:11;100398.78;;;2.66;82.92
27840;BME280;15207;42.182;24.308;2023-01-25T13:43:40;100397.59;;;2.76;83.38
27840;BME280;15207;42.182;24.308;2023-01-25T13:46:08;100407.78;;;2.90;82.03
27840;BME280;15207;42.182;24.308;2023-01-25T13:48:35;100398.72;;;2.99;81.69
27840;BME280;15207;42.182;24.308;2023-01-25T13:51:12;100395.13;;;3.01;81.61
27840;BME280;15207;42.182;24.308;2023-01-25T13:53:39;100395.72;;;2.80;82.12
27840;BME280;15207;42.182;24.308;2023-01-25T13:56:32;100387.16;;;2.71;80.94
27840;BME280;15207;42.182;24.308;2023-01-25T13:58:58;100389.72;;;2.74;81.45
27840;BME280;15207;42.182;24.308;2023-01-25T14:01:24;100388.78;;;2.75;81.40
27840;BME280;15207;42.182;24.308;2023-01-25T14:04:00;100389.97;;;2.65;82.04
27840;BME280;15207;42.182;24.308;2023-01-25T14:06:35;100388.59;;;2.51;82.59
27840;BME280;15207;42.182;24.308;2023-01-25T14:09:04;100380.53;;;2.56;82.30
27840;BME280;15207;42.182;24.308;2023-01-25T14:11:35;100377.06;;;2.54;83.43
27840;BME280;15207;42.182;24.308;2023-01-25T14:14:23;100374.31;;;2.57;83.03
27840;BME280;15207;42.182;24.308;2023-01-25T14:19:35;100367.56;;;2.47;84.31
27840;BME280;15207;42.182;24.308;2023-01-25T14:27:44;100365.50;;;2.27;85.46
27840;BME280;15207;42.182;24.308;2023-01-25T14:30:31;100362.00;;;2.24;86.45
27840;BME280;15207;42.182;24.308;2023-01-25T14:32:59;100370.44;;;2.39;85.66
27840;BME280;15207;42.182;24.308;2023-01-25T14:37:55;100379.78;;;2.51;83.89
27840;BME280;15207;42.182;24.308;2023-01-25T14:40:21;100374.75;;;2.42;83.97